Time;durP1;ratioP1;P1;durP2;ratioP2;P2;SDS_P1;SDS_P2;PMS_P1;PMS_P2;Temp;Humidity;BMP_temperature;BMP_pressure;BME280_temperature;BME280_humidity;BME280_pressure;Samples;Min_cycle;Max_cycle;Signal;HPM_P1;HPM_P2
2021/04/28 00:00:35;;;;;;;8.43;4.37;;;12.00;58.20;;;;;;4973732;28;20593;-79
2021/04/28 00:03:03;;;;;;;8.50;3.97;;;12.00;58.70;;;;;;4974743;28;20181;-79
2021/04/28 00:05:29;;;;;;;10.67;4.50;;;11.90;58.80;;;;;;4975719;28;20605;-77
2021/04/28 00:07:55;;;;;;;10.80;4.63;;;11.80;59.20;;;;;;4990038;28;20213;-77
2021/04/28 00:10:26;;;;;;;7.30;3.87;;;11.80;58.90;;;;;;4975739;28;20641;-77
2021/04/28 00:12:51;;;;;;;10.00;4.60;;;11.70;58.90;;;;;;4975538;28;20662;-77
2021/04/28 00:15:22;;;;;;;10.63;4.53;;;11.60;59.10;;;;;;4974317;28;20226;-77
2021/04/28 00:17:51;;;;;;;8.27;4.27;;;11.50;59.10;;;;;;4975539;28;20203;-76
2021/04/28 00:20:17;;;;;;;8.77;3.87;;;11.50;59.30;;;;;;4972868;28;20173;-77
2021/04/28 00:22:43;;;;;;;11.53;4.70;;;11.30;60.80;;;;;;5006121;28;20182;-77
2021/04/28 00:25:13;;;;;;;11.93;4.77;;;11.40;60.40;;;;;;4973511;28;20184;-76
2021/04/28 00:27:39;;;;;;;8.40;4.30;;;11.30;60.70;;;;;;4973006;28;20211;-77
2021/04/28 00:30:07;;;;;;;8.93;3.90;;;11.30;61.10;;;;;;4972921;28;20659;-76
2021/04/28 00:32:37;;;;;;;11.23;4.53;;;11.20;61.60;;;;;;4974888;28;20225;-76
2021/04/28 00:35:05;;;;;;;8.80;4.43;;;11.20;61.40;;;;;;4973026;28;20595;-77
2021/04/28 00:37:31;;;;;;;10.33;4.40;;;11.20;61.80;;;;;;4972903;28;20252;-78
2021/04/28 00:39:57;;;;;;;7.83;4.43;;;11.00;61.80;;;;;;4973257;28;20196;-77
2021/04/28 00:42:22;;;;;;;11.60;4.13;;;11.00;62.50;;;;;;4972829;28;20274;-78
2021/04/28 00:44:49;;;;;;;12.10;4.50;;;11.00;61.70;;;;;;4974741;28;20215;-78
2021/04/28 00:47:15;;;;;;;8.90;4.40;;;11.00;61.70;;;;;;4974599;28;20219;-79
2021/04/28 00:49:41;;;;;;;9.67;4.40;;;11.00;61.30;;;;;;5004974;28;20197;-79
2021/04/28 00:52:07;;;;;;;8.07;4.37;;;11.00;61.60;;;;;;5005538;28;20188;-78
2021/04/28 00:54:34;;;;;;;14.50;4.63;;;11.00;61.60;;;;;;4972027;28;20203;-78
2021/04/28 00:57:00;;;;;;;10.60;4.60;;;10.80;62.10;;;;;;4974302;28;20256;-78
2021/04/28 00:59:27;;;;;;;12.30;4.50;;;10.90;62.10;;;;;;4990038;28;20657;-78
2021/04/28 01:01:53;;;;;;;8.83;4.40;;;10.80;62.40;;;;;;4972751;28;20176;-78
2021/04/28 01:04:21;;;;;;;10.43;4.33;;;10.70;62.90;;;;;;5005782;28;20182;-77
2021/04/28 01:06:48;;;;;;;9.03;4.60;;;10.60;63.00;;;;;;4973762;28;20212;-78
2021/04/28 01:09:14;;;;;;;8.90;4.40;;;10.60;63.00;;;;;;5006727;28;20249;-77
2021/04/28 01:11:42;;;;;;;10.20;4.53;;;10.70;63.00;;;;;;5007064;28;20176;-77
2021/04/28 01:14:08;;;;;;;9.33;4.43;;;10.70;62.90;;;;;;4988959;28;20674;-77
2021/04/28 01:16:34;;;;;;;10.20;4.10;;;10.70;63.00;;;;;;5004423;28;20302;-77
2021/04/28 01:19:02;;;;;;;9.80;4.43;;;10.70;63.20;;;;;;4987122;28;20591;-77
2021/04/28 01:21:28;;;;;;;8.57;4.20;;;10.70;63.40;;;;;;5005294;28;20181;-77
2021/04/28 01:23:54;;;;;;;14.10;5.63;;;10.80;64.10;;;;;;4988299;28;20187;-76
2021/04/28 01:26:26;;;;;;;17.07;6.57;;;10.80;63.80;;;;;;4975560;28;20258;-77
2021/04/28 01:28:54;;;;;;;31.77;12.40;;;10.80;64.80;;;;;;4972811;28;20683;-76
2021/04/28 01:31:23;;;;;;;29.43;11.53;;;10.80;65.00;;;;;;5004357;28;20608;-79
2021/04/28 01:33:57;;;;;;;22.53;8.97;;;10.80;66.70;;;;;;4971821;28;20275;-78
2021/04/28 01:36:27;;;;;;;15.37;5.80;;;10.80;67.10;;;;;;5005349;28;20247;-79
2021/04/28 01:38:56;;;;;;;11.30;4.80;;;10.80;67.40;;;;;;4974037;28;20218;-77
2021/04/28 01:41:25;;;;;;;9.00;4.43;;;10.70;67.90;;;;;;5003482;28;20643;-77
2021/04/28 01:43:54;;;;;;;11.03;5.30;;;10.60;68.30;;;;;;5004142;28;20167;-77
2021/04/28 01:46:25;;;;;;;15.03;6.90;;;10.50;69.30;;;;;;4987984;28;20184;-77
2021/04/28 01:48:51;;;;;;;15.40;6.90;;;10.50;70.20;;;;;;5005305;28;20215;-77
2021/04/28 01:51:18;;;;;;;16.90;6.90;;;10.50;71.40;;;;;;4971413;28;20195;-77
2021/04/28 01:53:44;;;;;;;19.10;7.47;;;10.30;72.20;;;;;;4973972;28;20624;-76
2021/04/28 01:56:12;;;;;;;15.00;7.00;;;10.30;73.40;;;;;;5003398;28;20190;-76
2021/04/28 01:58:56;;;;;;;14.67;6.47;;;10.30;73.20;;;;;;4973402;28;20180;-77
2021/04/28 02:01:34;;;;;;;13.33;5.80;;;10.20;74.00;;;;;;4971610;28;20218;-77
2021/04/28 02:04:02;;;;;;;13.40;6.07;;;10.20;72.80;;;;;;4986558;28;20179;-77
2021/04/28 02:06:28;;;;;;;14.20;5.47;;;10.20;71.40;;;;;;4973540;28;20204;-78
2021/04/28 02:08:53;;;;;;;12.97;5.60;;;10.30;70.20;;;;;;4973398;28;20234;-77
2021/04/28 02:11:19;;;;;;;14.57;6.33;;;10.30;70.40;;;;;;5004555;28;20267;-78
2021/04/28 02:13:48;;;;;;;12.87;6.10;;;10.30;71.80;;;;;;4971715;28;20187;-77
2021/04/28 02:16:39;;;;;;;11.67;5.77;;;10.30;72.30;;;;;;4974104;28;20219;-78
2021/04/28 02:19:09;;;;;;;9.97;5.33;;;10.20;72.00;;;;;;4986027;28;20183;-78
2021/04/28 02:21:44;;;;;;;12.10;5.33;;;10.20;70.90;;;;;;4989421;28;20678;-78
2021/04/28 02:24:22;;;;;;;10.10;5.67;;;10.30;70.90;;;;;;4972181;28;20229;-78
2021/04/28 02:26:54;;;;;;;10.00;4.70;;;10.40;70.00;;;;;;4972195;28;20678;-78
2021/04/28 02:29:21;;;;;;;10.27;5.07;;;10.30;70.40;;;;;;4988365;28;20214;-77
2021/04/28 02:31:47;;;;;;;12.53;5.33;;;10.30;70.80;;;;;;4977337;28;20186;-78
2021/04/28 02:34:18;;;;;;;13.80;5.30;;;10.40;71.30;;;;;;5001910;28;20235;-78
2021/04/28 02:37:05;;;;;;;11.27;5.17;;;10.60;71.20;;;;;;4987230;28;20329;-77
2021/04/28 02:39:56;;;;;;;17.33;5.73;;;10.60;71.50;;;;;;4972787;28;20218;-78
2021/04/28 02:42:23;;;;;;;13.03;5.00;;;10.60;72.70;;;;;;5000380;28;20194;-77
2021/04/28 02:44:50;;;;;;;11.90;4.90;;;10.70;71.90;;;;;;4986653;28;20272;-77
2021/04/28 02:47:20;;;;;;;11.27;4.83;;;10.70;70.90;;;;;;4987151;28;20238;-78
2021/04/28 02:49:47;;;;;;;8.90;4.77;;;10.80;70.60;;;;;;5002391;28;20191;-78
2021/04/28 02:52:32;;;;;;;11.40;4.97;;;10.80;69.80;;;;;;4984469;28;20250;-78
2021/04/28 02:54:59;;;;;;;12.27;5.47;;;10.70;68.80;;;;;;5003508;28;20188;-78
2021/04/28 02:57:25;;;;;;;9.73;5.30;;;10.70;68.30;;;;;;4986418;28;20311;-77
2021/04/28 02:59:53;;;;;;;11.77;5.30;;;10.70;67.00;;;;;;5003190;28;20184;-78
2021/04/28 03:02:23;;;;;;;11.77;5.03;;;10.80;67.10;;;;;;4986965;28;20637;-77
2021/04/28 03:04:51;;;;;;;8.80;5.03;;;10.80;67.10;;;;;;4970190;28;20696;-78
2021/04/28 03:07:37;;;;;;;11.20;5.50;;;10.70;67.90;;;;;;4973026;28;20242;-77
2021/04/28 03:10:04;;;;;;;12.13;5.30;;;10.60;68.60;;;;;;5001762;28;20195;-77
2021/04/28 03:12:31;;;;;;;10.27;5.63;;;10.50;69.10;;;;;;5005241;28;20191;-78
2021/04/28 03:14:59;;;;;;;14.73;5.53;;;10.50;69.60;;;;;;4971401;28;20217;-78
2021/04/28 03:17:26;;;;;;;12.20;5.47;;;10.50;69.80;;;;;;4972651;28;20214;-78
2021/04/28 03:19:56;;;;;;;11.97;5.23;;;10.60;69.20;;;;;;5003052;28;20188;-78
2021/04/28 03:22:26;;;;;;;12.30;5.40;;;10.70;69.20;;;;;;5002870;28;20617;-78
2021/04/28 03:24:53;;;;;;;13.27;5.60;;;10.70;69.90;;;;;;5002189;28;20206;-78
2021/04/28 03:27:20;;;;;;;10.13;5.03;;;10.70;71.50;;;;;;4987787;28;20183;-78
2021/04/28 03:29:54;;;;;;;8.93;4.90;;;10.70;72.10;;;;;;4972820;28;20199;-78
2021/04/28 03:32:21;;;;;;;8.77;5.23;;;10.60;72.70;;;;;;5007539;28;20182;-78
2021/04/28 03:34:55;;;;;;;12.60;5.63;;;10.50;72.50;;;;;;4988918;28;20688;-78
2021/04/28 03:37:21;;;;;;;11.50;4.93;;;10.40;72.50;;;;;;4978973;28;20208;-78
2021/04/28 03:39:49;;;;;;;12.30;5.20;;;10.40;74.10;;;;;;4992881;28;20290;-78
2021/04/28 03:42:16;;;;;;;9.67;4.90;;;10.30;74.10;;;;;;4993846;28;20275;-77
2021/04/28 03:44:42;;;;;;;12.37;5.77;;;10.20;74.40;;;;;;4978249;28;20632;-78
2021/04/28 03:47:09;;;;;;;13.37;5.33;;;10.20;74.80;;;;;;5008989;28;20554;-78
2021/04/28 03:49:39;;;;;;;11.83;5.83;;;10.10;76.20;;;;;;4992812;28;20681;-78
2021/04/28 03:52:05;;;;;;;11.43;5.90;;;10.20;75.80;;;;;;5013429;28;20192;-78
2021/04/28 03:54:49;;;;;;;12.73;5.30;;;10.20;76.10;;;;;;4975454;28;20257;-78
2021/04/28 03:57:15;;;;;;;12.47;6.10;;;10.10;76.80;;;;;;4975404;28;20302;-78
2021/04/28 03:59:42;;;;;;;12.17;5.73;;;10.00;77.50;;;;;;4974519;28;20194;-78
2021/04/28 04:02:07;;;;;;;13.53;5.77;;;9.90;77.60;;;;;;4975567;28;20688;-78
2021/04/28 04:04:57;;;;;;;10.80;5.60;;;9.70;78.50;;;;;;4973731;28;20245;-78
2021/04/28 04:07:58;;;;;;;13.90;6.00;;;9.60;82.40;;;;;;4991095;28;20223;-78
2021/04/28 04:10:38;;;;;;;18.80;6.57;;;9.60;83.80;;;;;;4991140;28;20194;-78
2021/04/28 04:13:04;;;;;;;14.20;5.97;;;9.80;82.50;;;;;;4972333;28;20283;-78
2021/04/28 04:15:30;;;;;;;11.83;6.53;;;9.90;82.20;;;;;;4973259;28;20190;-78
2021/04/28 04:17:57;;;;;;;14.67;6.23;;;9.90;82.10;;;;;;4974880;28;20301;-78
2021/04/28 04:20:28;;;;;;;13.53;6.30;;;9.80;83.10;;;;;;5005011;28;20225;-78
2021/04/28 04:22:56;;;;;;;11.90;6.03;;;9.80;83.20;;;;;;5004033;28;20182;-78
2021/04/28 04:25:40;;;;;;;13.73;5.87;;;9.80;83.90;;;;;;5004244;28;20186;-78
2021/04/28 04:28:09;;;;;;;14.43;6.40;;;9.70;84.00;;;;;;5004913;28;20756;-78
2021/04/28 04:30:50;;;;;;;15.23;5.80;;;9.60;85.30;;;;;;4975492;28;20171;-78
2021/04/28 04:33:34;;;;;;;13.77;5.63;;;9.50;86.30;;;;;;4974420;28;20279;-78
2021/04/28 04:36:18;;;;;;;16.13;6.13;;;9.50;89.20;;;;;;4973689;28;20195;-78
2021/04/28 04:39:04;;;;;;;13.60;6.00;;;9.60;88.10;;;;;;4971008;28;20253;-78
2021/04/28 04:41:49;;;;;;;13.23;5.97;;;9.70;87.40;;;;;;4974534;28;20187;-78
2021/04/28 04:44:38;;;;;;;16.37;6.83;;;9.70;87.00;;;;;;4972140;28;20223;-78
2021/04/28 04:47:07;;;;;;;14.40;6.57;;;9.70;86.90;;;;;;5006313;28;20202;-78
2021/04/28 04:49:32;;;;;;;14.97;5.90;;;9.70;87.40;;;;;;4980444;28;20199;-78
2021/04/28 04:51:58;;;;;;;14.37;6.20;;;9.70;89.00;;;;;;4975603;28;20201;-78
2021/04/28 04:54:24;;;;;;;16.17;6.47;;;9.60;90.30;;;;;;4976106;28;20204;-78
2021/04/28 04:56:50;;;;;;;13.63;6.10;;;9.60;90.50;;;;;;4975900;28;20205;-78
2021/04/28 04:59:15;;;;;;;16.50;6.33;;;9.70;90.40;;;;;;4974865;28;20179;-77
2021/04/28 05:01:41;;;;;;;12.47;6.23;;;10.10;89.70;;;;;;4990158;28;20634;-78
2021/04/28 05:04:07;;;;;;;15.87;6.27;;;10.70;86.00;;;;;;4972057;28;20222;-78
2021/04/28 05:06:32;;;;;;;16.83;6.07;;;11.80;81.20;;;;;;4975031;28;20552;-78
2021/04/28 05:08:58;;;;;;;19.70;6.67;;;12.90;76.50;;;;;;4975167;28;20191;-77
2021/04/28 05:11:24;;;;;;;16.03;5.97;;;13.80;72.50;;;;;;4972278;28;20181;-77
2021/04/28 05:13:50;;;;;;;15.20;6.63;;;14.50;69.20;;;;;;4974148;28;20594;-77
2021/04/28 05:16:16;;;;;;;15.13;6.33;;;15.20;66.60;;;;;;4971700;28;20194;-76
2021/04/28 05:18:41;;;;;;;11.00;6.10;;;15.80;65.10;;;;;;4973266;28;20529;-76
2021/04/28 05:21:07;;;;;;;12.30;6.73;;;16.60;61.10;;;;;;5003456;28;20211;-76
2021/04/28 05:23:33;;;;;;;16.70;6.50;;;17.20;58.00;;;;;;4987601;28;20184;-77
2021/04/28 05:26:24;;;;;;;16.17;6.20;;;17.60;56.80;;;;;;4979167;28;20236;-78
2021/04/28 05:28:50;;;;;;;15.67;6.43;;;18.10;55.40;;;;;;4972683;28;20645;-77
2021/04/28 05:31:16;;;;;;;12.97;6.33;;;18.40;53.80;;;;;;4972487;28;20209;-77
2021/04/28 05:33:41;;;;;;;15.63;6.23;;;18.50;53.20;;;;;;4972704;28;20711;-77
2021/04/28 05:36:08;;;;;;;12.97;5.87;;;18.90;52.90;;;;;;4970665;28;20272;-77
2021/04/28 05:38:34;;;;;;;9.50;5.73;;;19.30;52.30;;;;;;4970544;28;20572;-78
2021/04/28 05:41:00;;;;;;;15.97;6.37;;;19.60;51.70;;;;;;4972881;28;20180;-78
2021/04/28 05:43:26;;;;;;;13.60;6.37;;;19.30;52.50;;;;;;4987784;28;20183;-75
2021/04/28 05:45:52;;;;;;;12.37;6.87;;;17.50;55.90;;;;;;4998662;28;20219;-76
2021/04/28 05:48:18;;;;;;;16.43;6.20;;;16.10;58.40;;;;;;4967006;28;20189;-75
2021/04/28 05:50:45;;;;;;;12.43;6.30;;;15.40;59.00;;;;;;4970552;28;20644;-75
2021/04/28 05:53:11;;;;;;;13.67;6.50;;;14.50;60.30;;;;;;4971541;28;20193;-76
2021/04/28 05:55:38;;;;;;;10.73;6.20;;;14.10;61.30;;;;;;4972505;28;20227;-75
2021/04/28 05:58:05;;;;;;;14.13;5.93;;;13.80;62.10;;;;;;4971206;28;20583;-75
2021/04/28 06:00:31;;;;;;;14.60;6.03;;;13.70;62.60;;;;;;5001770;28;20198;-76
2021/04/28 06:02:57;;;;;;;12.73;6.43;;;13.70;62.90;;;;;;4971017;28;20182;-76
2021/04/28 06:05:23;;;;;;;11.97;6.60;;;13.60;64.20;;;;;;4971093;28;20209;-76
2021/04/28 06:07:49;;;;;;;12.00;5.97;;;14.80;61.90;;;;;;4971540;28;20177;-76
2021/04/28 06:10:18;;;;;;;16.53;6.13;;;16.80;58.30;;;;;;4970376;28;20189;-76
2021/04/28 06:12:45;;;;;;;13.80;6.87;;;18.30;54.80;;;;;;5002217;28;20563;-76
2021/04/28 06:15:13;;;;;;;15.33;6.10;;;18.20;53.90;;;;;;4970755;28;20232;-76
2021/04/28 06:17:39;;;;;;;12.60;6.27;;;18.80;54.10;;;;;;5001606;28;20210;-76
2021/04/28 06:20:07;;;;;;;11.90;6.10;;;19.80;52.00;;;;;;4986604;28;20201;-76
2021/04/28 06:22:33;;;;;;;14.30;6.60;;;20.60;50.90;;;;;;4971218;28;20565;-77
2021/04/28 06:24:59;;;;;;;10.13;6.00;;;21.00;48.70;;;;;;5002458;28;20181;-76
2021/04/28 06:27:25;;;;;;;12.97;5.77;;;20.70;48.90;;;;;;4971717;28;20624;-76
2021/04/28 06:29:51;;;;;;;12.33;6.37;;;20.70;49.30;;;;;;4971110;28;20187;-76
2021/04/28 06:32:17;;;;;;;11.80;6.03;;;20.70;49.10;;;;;;5001549;28;20188;-76
2021/04/28 06:34:43;;;;;;;11.13;6.17;;;20.70;48.80;;;;;;4969407;28;20237;-76
2021/04/28 06:37:10;;;;;;;11.57;6.60;;;21.00;48.30;;;;;;4971497;28;20210;-76
2021/04/28 06:39:36;;;;;;;12.77;6.37;;;21.70;48.30;;;;;;4969276;28;20190;-76
2021/04/28 06:42:01;;;;;;;11.07;6.13;;;21.60;47.60;;;;;;5001349;28;20712;-76
2021/04/28 06:44:27;;;;;;;15.87;6.73;;;21.80;47.20;;;;;;4971063;28;20540;-77
2021/04/28 06:46:53;;;;;;;14.80;7.00;;;22.30;46.40;;;;;;4997291;28;20216;-76
2021/04/28 06:49:18;;;;;;;13.00;6.47;;;22.50;46.70;;;;;;4969625;28;20546;-77
2021/04/28 06:51:44;;;;;;;12.73;7.20;;;22.80;46.50;;;;;;5002566;28;20239;-76
2021/04/28 06:54:10;;;;;;;13.50;7.37;;;23.30;45.40;;;;;;4985811;28;20183;-77
2021/04/28 06:56:37;;;;;;;14.33;7.13;;;23.50;45.70;;;;;;4985187;28;20969;-76
2021/04/28 06:59:03;;;;;;;15.27;6.67;;;24.20;44.10;;;;;;4983955;28;20200;-76
2021/04/28 07:01:29;;;;;;;14.63;7.03;;;24.30;43.80;;;;;;4971739;28;20568;-77
2021/04/28 07:03:54;;;;;;;14.65;6.97;;;24.60;42.60;;;;;;4969628;28;20194;-77
2021/04/28 07:06:20;;;;;;;11.60;6.72;;;24.10;43.50;;;;;;4971066;28;20175;-78
2021/04/28 07:08:46;;;;;;;15.53;7.13;;;22.70;44.40;;;;;;4971063;28;20601;-76
2021/04/28 07:11:11;;;;;;;12.77;6.87;;;21.40;46.80;;;;;;4970612;28;20202;-76
2021/04/28 07:13:37;;;;;;;16.40;8.00;;;21.00;48.50;;;;;;4973854;28;20180;-76
2021/04/28 07:16:03;;;;;;;16.77;7.30;;;20.80;48.20;;;;;;4968873;28;20185;-76
2021/04/28 07:18:29;;;;;;;15.20;7.93;;;20.60;48.80;;;;;;5001893;28;20254;-76
2021/04/28 07:20:56;;;;;;;14.00;7.23;;;20.40;49.10;;;;;;4970099;28;20193;-76
2021/04/28 07:23:22;;;;;;;13.27;7.10;;;20.30;49.00;;;;;;4970602;28;20647;-77
2021/04/28 07:25:47;;;;;;;13.07;6.80;;;20.20;49.70;;;;;;4971989;28;20192;-76
2021/04/28 07:28:13;;;;;;;16.13;7.07;;;19.70;50.50;;;;;;4969970;28;20278;-76
2021/04/28 07:30:39;;;;;;;16.20;7.53;;;19.80;52.40;;;;;;4972607;28;20188;-76
2021/04/28 07:33:05;;;;;;;13.97;6.90;;;20.60;50.20;;;;;;4985229;28;20587;-76
2021/04/28 07:35:31;;;;;;;12.00;7.33;;;21.20;49.20;;;;;;4970492;28;20250;-76
2021/04/28 07:37:57;;;;;;;14.20;7.77;;;19.90;49.70;;;;;;4970735;28;20672;-76
2021/04/28 07:40:22;;;;;;;12.07;7.40;;;19.80;50.70;;;;;;4968399;28;20194;-76
2021/04/28 07:42:49;;;;;;;15.10;7.73;;;20.50;49.70;;;;;;4970532;28;20188;-76
2021/04/28 07:45:16;;;;;;;14.27;7.00;;;21.50;48.40;;;;;;4967063;28;20312;-76
2021/04/28 07:47:42;;;;;;;12.13;7.23;;;22.50;48.00;;;;;;4970657;28;20207;-76
2021/04/28 07:50:09;;;;;;;15.73;7.40;;;23.00;46.10;;;;;;4969543;28;20187;-77
2021/04/28 07:52:34;;;;;;;17.87;7.37;;;23.80;45.50;;;;;;5000935;28;20202;-77
2021/04/28 07:55:00;;;;;;;13.80;7.70;;;24.30;46.20;;;;;;4970956;28;20220;-76
2021/04/28 07:57:26;;;;;;;18.00;7.57;;;23.90;44.30;;;;;;4968500;28;20218;-77
2021/04/28 07:59:52;;;;;;;17.80;7.90;;;23.40;45.70;;;;;;4969730;28;20681;-76
2021/04/28 08:02:18;;;;;;;12.50;7.10;;;23.30;44.50;;;;;;4984530;28;20194;-76
2021/04/28 08:04:43;;;;;;;14.30;8.20;;;23.20;45.60;;;;;;4969573;28;20242;-77
2021/04/28 08:07:09;;;;;;;12.50;7.43;;;22.60;45.60;;;;;;4970346;28;20231;-77
2021/04/28 08:09:36;;;;;;;17.07;7.47;;;22.80;46.50;;;;;;4968583;28;20241;-77
2021/04/28 08:12:04;;;;;;;13.23;7.50;;;22.80;45.20;;;;;;4970267;28;20183;-77
2021/04/28 08:14:29;;;;;;;15.23;7.77;;;22.60;46.60;;;;;;4968966;28;20666;-77
2021/04/28 08:16:55;;;;;;;15.00;7.27;;;22.80;46.40;;;;;;4972981;28;20210;-77
2021/04/28 08:19:21;;;;;;;13.27;7.83;;;22.00;47.30;;;;;;4990067;28;20234;-77
2021/04/28 08:21:47;;;;;;;14.50;7.60;;;22.00;47.10;;;;;;4972860;28;20666;-78
2021/04/28 08:24:12;;;;;;;13.23;7.30;;;22.80;46.40;;;;;;4973194;28;20183;-78
2021/04/28 08:26:39;;;;;;;18.47;7.87;;;23.40;47.00;;;;;;4971985;28;20192;-78
2021/04/28 08:29:04;;;;;;;14.97;8.30;;;23.40;45.10;;;;;;4986939;28;20195;-76
2021/04/28 08:31:30;;;;;;;18.80;8.40;;;22.70;46.70;;;;;;4972005;28;20209;-76
2021/04/28 08:33:56;;;;;;;15.77;8.10;;;22.50;46.70;;;;;;4972342;28;20229;-76
2021/04/28 08:36:21;;;;;;;14.83;8.60;;;22.30;46.50;;;;;;4973120;28;20233;-76
2021/04/28 08:38:47;;;;;;;15.80;7.83;;;22.80;46.90;;;;;;4970553;28;20930;-76
2021/04/28 08:41:13;;;;;;;20.50;8.27;;;23.30;46.40;;;;;;5004786;28;20192;-76
2021/04/28 08:43:40;;;;;;;14.97;8.40;;;24.30;45.70;;;;;;4973459;28;20266;-76
2021/04/28 08:46:06;;;;;;;14.77;7.80;;;23.90;45.50;;;;;;4970948;28;20273;-76
2021/04/28 08:48:33;;;;;;;15.80;7.67;;;23.90;45.30;;;;;;4971797;28;20179;-76
2021/04/28 08:50:59;;;;;;;16.10;7.90;;;23.60;44.80;;;;;;4973015;28;20291;-76
2021/04/28 08:53:28;;;;;;;14.87;8.27;;;24.60;46.10;;;;;;4971747;28;20588;-77
2021/04/28 08:55:55;;;;;;;15.60;8.25;;;25.60;43.80;;;;;;4972307;28;20680;-76
2021/04/28 08:58:21;;;;;;;15.98;8.65;;;27.50;43.10;;;;;;4971937;28;20223;-76
2021/04/28 09:00:47;;;;;;;16.23;8.40;;;29.50;39.90;;;;;;4972543;28;20237;-76
2021/04/28 09:03:16;;;;;;;14.57;8.00;;;30.20;39.40;;;;;;4971637;28;20183;-76
2021/04/28 09:05:43;;;;;;;13.70;8.20;;;29.40;37.80;;;;;;4972175;28;20183;-76
2021/04/28 09:08:10;;;;;;;16.88;8.75;;;29.60;38.40;;;;;;4971487;28;20191;-76
2021/04/28 09:10:37;;;;;;;22.05;9.73;;;28.80;39.10;;;;;;4972844;28;20199;-76
2021/04/28 09:13:05;;;;;;;16.13;8.00;;;29.50;38.70;;;;;;4971416;28;20184;-76
2021/04/28 09:15:45;;;;;;;15.43;8.73;;;30.30;37.60;;;;;;4985935;28;20229;-76
2021/04/28 09:18:13;;;;;;;14.43;8.55;;;30.00;38.50;;;;;;4986375;28;20620;-77
2021/04/28 09:20:58;;;;;;;15.75;8.70;;;30.40;37.80;;;;;;4998888;28;20198;-77
2021/04/28 09:23:42;;;;;;;17.63;8.68;;;31.10;37.20;;;;;;4973685;28;20223;-76
2021/04/28 09:26:20;;;;;;;14.63;8.40;;;30.60;36.40;;;;;;4970655;28;20210;-76
2021/04/28 09:29:05;;;;;;;18.50;9.40;;;30.90;38.20;;;;;;4971989;28;20261;-77
2021/04/28 09:31:32;;;;;;;22.70;9.63;;;32.20;36.30;;;;;;4972605;28;20195;-76
2021/04/28 09:33:59;;;;;;;17.77;8.73;;;32.80;35.50;;;;;;4972114;28;20185;-76
2021/04/28 09:36:39;;;;;;;15.52;9.23;;;32.00;35.10;;;;;;4972934;28;20222;-76
2021/04/28 09:39:17;;;;;;;14.07;8.80;;;31.20;34.60;;;;;;5002313;28;20218;-77
2021/04/28 09:41:50;;;;;;;20.05;9.73;;;31.60;34.90;;;;;;5003718;28;20238;-76
2021/04/28 09:44:19;;;;;;;21.83;10.45;;;31.60;35.70;;;;;;4971506;28;20210;-77
2021/04/28 09:46:54;;;;;;;17.73;10.10;;;32.60;34.90;;;;;;5019591;28;20187;-77
2021/04/28 09:49:20;;;;;;;17.70;10.45;;;33.30;34.40;;;;;;4987527;28;20186;-77
2021/04/28 09:51:58;;;;;;;15.93;10.43;;;31.80;34.10;;;;;;4971203;28;20636;-76
2021/04/28 09:54:30;;;;;;;16.40;10.32;;;30.00;35.40;;;;;;4987176;28;20241;-77
2021/04/28 09:56:58;;;;;;;13.38;9.65;;;30.00;35.90;;;;;;4970787;28;20674;-77
2021/04/28 09:59:50;;;;;;;13.77;9.48;;;30.60;36.20;;;;;;4972220;28;20187;-76
2021/04/28 10:02:30;;;;;;;16.25;9.32;;;32.10;35.70;;;;;;4967981;28;20195;-77
2021/04/28 10:05:22;;;;;;;14.98;9.40;;;31.80;36.60;;;;;;5001839;28;20186;-76
2021/04/28 10:07:50;;;;;;;14.30;9.52;;;32.60;36.00;;;;;;4971391;28;20202;-76
2021/04/28 10:10:17;;;;;;;16.65;10.18;;;32.50;34.20;;;;;;4986256;28;21024;-77
2021/04/28 10:12:42;;;;;;;19.77;9.85;;;32.70;33.70;;;;;;4971707;28;20183;-76
2021/04/28 10:15:09;;;;;;;19.67;10.55;;;32.20;34.50;;;;;;4971181;28;20215;-76
2021/04/28 10:17:35;;;;;;;15.70;9.80;;;31.30;34.60;;;;;;4971889;28;20274;-76
2021/04/28 10:20:03;;;;;;;14.02;9.18;;;30.20;34.80;;;;;;4969591;28;20642;-76
2021/04/28 10:22:29;;;;;;;17.50;10.40;;;30.00;36.60;;;;;;4970699;28;20265;-77
2021/04/28 10:24:57;;;;;;;18.27;10.35;;;30.40;36.30;;;;;;4972070;28;20186;-76
2021/04/28 10:27:23;;;;;;;16.17;10.27;;;29.90;35.50;;;;;;4969235;28;20214;-76
2021/04/28 10:29:51;;;;;;;17.48;9.63;;;30.80;36.10;;;;;;4971934;28;20245;-76
2021/04/28 10:32:20;;;;;;;17.80;9.95;;;31.10;35.30;;;;;;4971278;28;20199;-77
2021/04/28 10:35:05;;;;;;;14.90;9.80;;;30.20;37.60;;;;;;4969476;28;20226;-76
2021/04/28 10:37:34;;;;;;;15.98;10.50;;;30.20;36.00;;;;;;4969679;28;20701;-76
2021/04/28 10:40:00;;;;;;;15.18;10.27;;;31.30;35.10;;;;;;4968664;28;20186;-76
2021/04/28 10:42:31;;;;;;;16.75;9.57;;;30.00;35.30;;;;;;4970822;28;20720;-76
2021/04/28 10:44:58;;;;;;;14.82;10.02;;;29.10;37.00;;;;;;5000375;28;20190;-77
2021/04/28 10:47:26;;;;;;;15.40;10.30;;;29.00;36.70;;;;;;4971333;28;20187;-77
2021/04/28 10:50:23;;;;;;;16.88;10.10;;;29.00;35.60;;;;;;4970185;28;20245;-77
2021/04/28 10:53:02;;;;;;;15.32;10.85;;;29.20;36.30;;;;;;4969062;28;20650;-77
2021/04/28 10:56:06;;;;;;;14.57;10.60;;;28.40;34.60;;;;;;4967793;28;20199;-78
2021/04/28 10:58:34;;;;;;;18.60;10.38;;;28.70;34.80;;;;;;4971066;28;20261;-78
2021/04/28 11:00:59;;;;;;;14.00;10.43;;;29.40;35.00;;;;;;4971538;28;20518;-78
2021/04/28 11:03:32;;;;;;;15.35;10.45;;;30.70;36.40;;;;;;4969673;28;20247;-79
2021/04/28 11:08:57;;;;;;;15.35;10.43;;;31.00;32.50;;;;;;4970947;28;20681;-78
2021/04/28 11:11:35;;;;;;;16.38;9.57;;;31.80;32.70;;;;;;5002443;28;20187;-78
2021/04/28 11:14:11;;;;;;;13.20;10.25;;;32.00;33.30;;;;;;5002711;28;20183;-78
2021/04/28 11:16:43;;;;;;;15.85;9.82;;;33.10;30.70;;;;;;4998338;28;20198;-77
2021/04/28 11:19:34;;;;;;;15.52;10.15;;;34.20;30.00;;;;;;5001831;28;20225;-79
2021/04/28 11:22:22;;;;;;;17.38;11.07;;;34.80;30.10;;;;;;5002462;28;20642;-78
2021/04/28 11:25:01;;;;;;;19.42;11.05;;;35.20;29.30;;;;;;4987441;28;20591;-79
2021/04/28 11:27:53;;;;;;;18.27;11.35;;;35.00;29.00;;;;;;4970808;28;20198;-80
2021/04/28 11:30:18;;;;;;;19.95;11.55;;;34.40;30.00;;;;;;5001727;28;20179;-79
2021/04/28 11:33:06;;;;;;;16.38;11.63;;;33.60;31.80;;;;;;4971116;28;20647;-78
2021/04/28 11:35:33;;;;;;;16.15;11.90;;;34.30;30.40;;;;;;4970809;28;20253;-78
2021/04/28 11:38:07;;;;;;;18.48;12.98;;;33.40;30.10;;;;;;4984269;28;20702;-79
2021/04/28 11:41:18;;;;;;;20.60;11.77;;;33.20;30.90;;;;;;4970001;28;20191;-78
2021/04/28 11:43:45;;;;;;;16.60;11.63;;;33.20;30.20;;;;;;4970571;28;20187;-78
2021/04/28 11:46:32;;;;;;;16.38;11.00;;;33.10;30.80;;;;;;4985083;28;20187;-78
2021/04/28 11:49:00;;;;;;;17.70;11.00;;;33.30;31.10;;;;;;4969961;28;20198;-79
2021/04/28 11:51:28;;;;;;;16.90;11.60;;;33.40;30.90;;;;;;4988569;28;20191;-78
2021/04/28 11:53:58;;;;;;;20.92;12.35;;;32.80;30.60;;;;;;5005740;28;20194;-78
2021/04/28 11:56:31;;;;;;;16.38;12.23;;;32.60;31.50;;;;;;4988546;28;20198;-78
2021/04/28 11:58:59;;;;;;;21.45;12.45;;;33.40;31.80;;;;;;5003620;28;20187;-78
2021/04/28 12:01:34;;;;;;;17.98;12.38;;;33.70;30.90;;;;;;4972575;28;20191;-79
2021/04/28 12:04:06;;;;;;;17.35;11.95;;;32.70;30.60;;;;;;5004457;28;20182;-79
2021/04/28 12:06:35;;;;;;;20.27;12.23;;;32.40;30.60;;;;;;4974176;28;20198;-78
2021/04/28 12:09:34;;;;;;;18.42;12.05;;;32.00;31.60;;;;;;4972606;28;20203;-78
2021/04/28 12:12:23;;;;;;;16.30;11.40;;;32.00;32.20;;;;;;4970270;28;20179;-78
2021/04/28 12:15:03;;;;;;;18.10;11.95;;;31.30;33.10;;;;;;4973672;28;20275;-78
2021/04/28 12:17:30;;;;;;;19.00;12.50;;;30.80;33.40;;;;;;4973334;28;20329;-78
2021/04/28 12:19:56;;;;;;;18.40;13.25;;;30.20;34.40;;;;;;4972841;28;20175;-78
2021/04/28 12:22:24;;;;;;;17.60;12.18;;;29.90;33.10;;;;;;4989233;28;20203;-78
2021/04/28 12:24:51;;;;;;;22.92;13.18;;;29.20;35.80;;;;;;4987390;28;20183;-78
2021/04/28 12:27:27;;;;;;;21.90;12.68;;;28.10;35.80;;;;;;4969873;28;20195;-77
2021/04/28 12:29:58;;;;;;;19.40;12.82;;;27.20;37.40;;;;;;5005228;28;20197;-78
2021/04/28 12:32:29;;;;;;;20.13;12.10;;;27.10;35.60;;;;;;4971081;28;20191;-77
2021/04/28 12:35:11;;;;;;;19.02;13.63;;;26.60;37.20;;;;;;4973522;28;20227;-78
2021/04/28 12:37:38;;;;;;;20.42;13.82;;;26.60;38.10;;;;;;4988385;28;20223;-78
2021/04/28 12:40:11;;;;;;;22.63;13.25;;;26.30;38.30;;;;;;4972504;28;20203;-78
2021/04/28 12:42:39;;;;;;;21.70;13.63;;;26.10;37.80;;;;;;4975935;28;20195;-77
2021/04/28 12:45:13;;;;;;;22.30;14.70;;;25.40;39.80;;;;;;4972788;28;20709;-77
2021/04/28 12:47:40;;;;;;;20.13;14.02;;;24.70;40.00;;;;;;5005722;28;20179;-77
2021/04/28 12:50:18;;;;;;;23.77;14.05;;;24.70;40.00;;;;;;4973154;28;20592;-77
2021/04/28 12:52:44;;;;;;;22.52;14.07;;;24.90;39.10;;;;;;5006356;28;20183;-78